Calilegua, Argentina
Current Conditions -  °F | °C
As of 8:00 PM on Sunday 21 Dec 2014 (Local Time) from SASJ Reporting Station
Drizzle Drizzle  
Wind Chill: 68°   Ceiling: 5000
Heat Index: 68°   Visibility: 4mi
Dew Point: 59°   Wind: 10mph
Humidity: 73%   Direction: 180°S
Pressure: 29.85"   Gusts: 23mph
Location:  23.78°S, 64.78°W
Report Text: SASJ 212300Z 18009G20KT 6000 -DZ FEW015SCT025 OVC050 20/15 Q1011
Loading
Personal Weather Stations






























Interactive Weather Map New forecast layout! Learn more

10-Day Weather Forecast

Advertisements
Track Severe Weather on mobile